Time;durP1;ratioP1;P1;durP2;ratioP2;P2;SDS_P1;SDS_P2;PMS_P1;PMS_P2;Temp;Humidity;BMP_temperature;BMP_pressure;BME280_temperature;BME280_humidity;BME280_pressure;Samples;Min_cycle;Max_cycle;Signal;HPM_P1;HPM_P2
2021/06/25 00:00:40;;;;;;;10.52;6.10;;;;;;;19.45;71.14;100899.66;5111256;28;20123;-87
2021/06/25 00:03:06;;;;;;;13.98;6.55;;;;;;;19.44;72.24;100900.66;5112220;28;20473;-87
2021/06/25 00:05:31;;;;;;;16.02;7.10;;;;;;;19.38;73.03;100894.94;5112077;28;20024;-87
2021/06/25 00:07:57;;;;;;;12.82;7.78;;;;;;;19.58;71.89;100886.81;5111387;28;20023;-86
2021/06/25 00:10:22;;;;;;;14.98;6.00;;;;;;;19.37;74.10;100885.28;5112379;28;20024;-87
2021/06/25 00:12:48;;;;;;;13.15;6.88;;;;;;;19.42;73.51;100880.31;5108778;28;20024;-87
2021/06/25 00:15:14;;;;;;;10.00;5.50;;;;;;;19.54;73.80;100886.28;5112227;28;20023;-87
2021/06/25 00:17:41;;;;;;;17.88;7.00;;;;;;;19.24;76.40;100887.44;5111560;28;20035;-87
2021/06/25 00:20:07;;;;;;;16.02;8.05;;;;;;;19.43;76.20;100878.50;5111343;28;20023;-87
2021/06/25 00:22:34;;;;;;;15.02;6.75;;;;;;;19.52;75.55;100879.44;5110051;28;20019;-87
2021/06/25 00:24:59;;;;;;;16.23;6.72;;;;;;;19.52;76.16;100866.94;5109692;28;20124;-87
2021/06/25 00:27:24;;;;;;;11.50;6.65;;;;;;;19.66;75.52;100873.56;5112135;28;20760;-87
2021/06/25 00:29:50;;;;;;;11.18;6.85;;;;;;;19.65;75.77;100871.91;5110374;28;20050;-87
2021/06/25 00:32:16;;;;;;;12.05;6.85;;;;;;;19.61;75.55;100870.53;5110247;28;20381;-87
2021/06/25 00:34:41;;;;;;;9.73;6.75;;;;;;;19.63;76.24;100865.91;5111093;28;20077;-87
2021/06/25 00:37:07;;;;;;;13.77;6.60;;;;;;;19.51;76.36;100861.75;5112209;28;20027;-87
2021/06/25 00:39:33;;;;;;;14.57;7.07;;;;;;;19.49;76.57;100855.75;5110469;28;20031;-87
2021/06/25 00:41:59;;;;;;;8.68;6.05;;;;;;;19.57;75.85;100858.50;5110705;28;20027;-87
2021/06/25 00:44:24;;;;;;;11.63;6.25;;;;;;;19.62;75.63;100843.72;5111752;28;20435;-87
2021/06/25 00:46:49;;;;;;;14.18;6.68;;;;;;;19.57;75.90;100829.22;5112170;28;20045;-87
2021/06/25 00:49:16;;;;;;;12.70;6.43;;;;;;;19.57;76.20;100838.03;5111972;28;20032;-87
2021/06/25 00:51:42;;;;;;;9.50;6.15;;;;;;;19.62;75.78;100838.41;5114173;28;20426;-87
2021/06/25 00:54:08;;;;;;;7.28;5.60;;;;;;;19.58;76.06;100837.03;5115058;28;20031;-87
2021/06/25 00:56:35;;;;;;;8.70;5.70;;;;;;;19.62;76.27;100821.59;5115657;28;20074;-87
2021/06/25 00:59:00;;;;;;;7.70;5.90;;;;;;;19.70;76.04;100831.47;5114529;28;20027;-87
2021/06/25 01:01:26;;;;;;;8.32;5.55;;;;;;;19.75;75.91;100823.91;5116401;28;20032;-87
2021/06/25 01:03:51;;;;;;;11.23;5.95;;;;;;;19.72;75.51;100817.03;5113952;28;20023;-87
2021/06/25 01:06:18;;;;;;;8.38;5.82;;;;;;;19.73;75.25;100810.72;5113506;28;20024;-87
2021/06/25 01:08:44;;;;;;;9.30;5.85;;;;;;;19.59;76.50;100805.94;5113474;28;20091;-87
2021/06/25 01:11:10;;;;;;;8.68;5.70;;;;;;;19.69;75.81;100806.69;5113122;28;20012;-87
2021/06/25 01:13:38;;;;;;;11.60;6.60;;;;;;;19.63;76.49;100804.63;5113474;28;20026;-87
2021/06/25 01:16:08;;;;;;;11.25;5.93;;;;;;;19.67;76.02;100800.66;5113871;28;20077;-87
2021/06/25 01:18:34;;;;;;;8.30;5.75;;;;;;;19.56;75.77;100793.72;5113505;28;20027;-87
2021/06/25 01:21:01;;;;;;;12.25;6.22;;;;;;;19.37;76.48;100802.72;5115078;27;20034;-87
2021/06/25 01:23:26;;;;;;;9.05;5.07;;;;;;;19.51;75.82;100792.50;5112973;28;20093;-88
2021/06/25 01:25:53;;;;;;;6.68;4.90;;;;;;;19.47;76.83;100788.47;5114836;28;20035;-87
2021/06/25 01:28:18;;;;;;;9.30;4.80;;;;;;;19.42;75.64;100792.44;5113949;28;20055;-87
2021/06/25 01:30:46;;;;;;;9.07;5.50;;;;;;;19.33;77.42;100787.19;5114971;28;20084;-87
2021/06/25 01:33:15;;;;;;;6.80;5.07;;;;;;;19.31;77.39;100787.38;5113212;28;20027;-87
2021/06/25 01:35:40;;;;;;;10.88;5.68;;;;;;;19.16;77.37;100783.56;5114870;28;20059;-87
2021/06/25 01:38:07;;;;;;;11.18;6.30;;;;;;;18.91;81.06;100780.63;5114004;28;20073;-88
2021/06/25 01:40:36;;;;;;;10.63;5.75;;;;;;;18.83;80.72;100775.22;5115072;28;20023;-87
2021/06/25 01:43:03;;;;;;;8.38;5.78;;;;;;;19.10;80.83;100773.50;5112305;28;20034;-88
2021/06/25 01:45:30;;;;;;;12.35;6.95;;;;;;;18.87;82.34;100775.75;5112901;28;20023;-88
2021/06/25 01:47:57;;;;;;;8.02;5.40;;;;;;;19.01;81.37;100778.72;5114556;28;20076;-87
2021/06/25 01:50:25;;;;;;;7.13;5.47;;;;;;;19.17;80.57;100782.53;5113752;28;20092;-88
2021/06/25 01:53:15;;;;;;;8.32;5.63;;;;;;;19.24;80.50;100772.16;5112934;28;20027;-87
2021/06/25 01:55:42;;;;;;;7.20;5.35;;;;;;;18.80;81.74;100778.19;5106457;28;20036;-88
2021/06/25 01:58:23;;;;;;;7.47;5.30;;;;;;;19.08;81.28;100772.81;5112402;28;20413;-87
2021/06/25 02:01:17;;;;;;;6.30;5.38;;;;;;;18.98;82.58;100772.88;5114289;28;20044;-87
2021/06/25 02:03:44;;;;;;;7.30;5.47;;;;;;;19.02;81.97;100768.94;5104773;28;20044;-87
2021/06/25 02:06:10;;;;;;;6.43;4.80;;;;;;;19.02;81.88;100768.94;5114025;28;20076;-88
2021/06/25 02:08:38;;;;;;;6.95;4.40;;;;;;;18.94;82.96;100771.53;5111220;28;20095;-88
2021/06/25 02:11:04;;;;;;;5.45;4.03;;;;;;;18.97;82.55;100772.03;5114042;28;20020;-88
2021/06/25 02:13:30;;;;;;;5.90;3.92;;;;;;;18.89;83.43;100761.31;5113061;28;20473;-88
2021/06/25 02:15:55;;;;;;;4.65;3.55;;;;;;;18.90;82.37;100764.78;5112070;28;20038;-88
2021/06/25 02:18:20;;;;;;;6.03;4.50;;;;;;;18.83;83.41;100746.78;5112734;28;20027;-88
2021/06/25 02:20:46;;;;;;;4.15;3.42;;;;;;;18.92;84.74;100755.69;5112252;28;20023;-88
2021/06/25 02:23:11;;;;;;;5.85;3.97;;;;;;;18.92;83.58;100747.72;5112742;28;20500;-88
2021/06/25 02:25:37;;;;;;;3.80;3.15;;;;;;;18.93;84.61;100746.72;5111825;28;20024;-88
2021/06/25 02:28:03;;;;;;;5.72;3.63;;;;;;;18.82;86.16;100745.13;5112068;28;20435;-88
2021/06/25 02:30:28;;;;;;;6.07;3.47;;;;;;;18.92;84.62;100744.22;5112125;28;20024;-88
2021/06/25 02:32:53;;;;;;;4.47;3.10;;;;;;;18.94;84.74;100732.44;5111602;28;20393;-88
2021/06/25 02:35:19;;;;;;;4.63;3.15;;;;;;;18.94;85.00;100732.44;5112680;28;20465;-89
2021/06/25 02:37:45;;;;;;;5.82;3.15;;;;;;;18.87;85.94;100731.34;5111181;28;20032;-89
2021/06/25 02:40:12;;;;;;;3.15;2.83;;;;;;;18.89;87.34;100729.38;5113729;28;20433;-89
2021/06/25 02:42:37;;;;;;;5.13;2.95;;;;;;;19.05;86.47;100722.56;5111764;28;20428;-89
2021/06/25 02:45:04;;;;;;;3.50;2.50;;;;;;;19.16;85.95;100731.16;5110230;28;20019;-89
2021/06/25 02:47:30;;;;;;;3.45;2.90;;;;;;;19.10;86.64;100712.31;5111766;27;20381;-89
2021/06/25 02:49:55;;;;;;;2.97;2.65;;;;;;;19.10;86.54;100717.63;5111505;28;20102;-88
2021/06/25 02:52:20;;;;;;;3.80;2.42;;;;;;;19.10;87.43;100720.28;5110958;28;20059;-88
2021/06/25 02:54:46;;;;;;;3.80;2.58;;;;;;;19.11;87.22;100713.97;5109783;27;20023;-89
2021/06/25 02:57:11;;;;;;;3.70;2.67;;;;;;;19.05;88.16;100706.59;5105453;28;20023;-89
2021/06/25 02:59:37;;;;;;;3.10;2.80;;;;;;;19.07;87.48;100707.25;5106001;28;20031;-89
2021/06/25 03:02:02;;;;;;;3.80;2.80;;;;;;;19.12;88.02;100716.47;5110222;28;20031;-89
2021/06/25 03:04:28;;;;;;;3.10;2.80;;;;;;;19.26;87.11;100712.44;5112091;28;20027;-89
2021/06/25 03:06:53;;;;;;;5.82;3.00;;;;;;;19.21;87.98;100704.91;5112841;28;20492;-89
2021/06/25 03:09:18;;;;;;;4.40;3.10;;;;;;;19.26;87.76;100703.63;5110966;28;20073;-89
2021/06/25 03:11:44;;;;;;;3.75;2.90;;;;;;;19.40;87.31;100697.75;5113044;28;20020;-89
2021/06/25 03:14:09;;;;;;;8.35;3.30;;;;;;;19.20;88.51;100697.91;5110987;28;20112;-89
2021/06/25 03:16:35;;;;;;;5.30;3.58;;;;;;;19.29;88.17;100696.13;5113071;28;20030;-89
2021/06/25 03:19:00;;;;;;;5.72;3.20;;;;;;;19.26;88.95;100695.63;5111442;28;20362;-89
2021/06/25 03:21:25;;;;;;;4.07;3.67;;;;;;;19.42;88.48;100693.09;5112709;28;20385;-89
2021/06/25 03:23:51;;;;;;;5.70;3.17;;;;;;;19.62;86.46;100680.41;5110974;28;20039;-88
2021/06/25 03:26:16;;;;;;;3.17;2.55;;;;;;;19.69;86.84;100689.47;5110649;28;20478;-89
2021/06/25 03:28:42;;;;;;;4.30;3.17;;;;;;;19.70;86.18;100696.44;5111012;28;20030;-89
2021/06/25 03:31:07;;;;;;;4.47;2.63;;;;;;;19.72;86.51;100691.00;5112801;28;20149;-89
2021/06/25 03:33:33;;;;;;;4.80;3.30;;;;;;;19.67;87.04;100688.78;5111704;28;20023;-88
2021/06/25 03:35:58;;;;;;;3.78;3.22;;;;;;;19.62;87.15;100686.56;5112664;28;20431;-88
2021/06/25 03:38:23;;;;;;;5.40;2.97;;;;;;;19.60;87.49;100677.06;5111732;28;20499;-88
2021/06/25 03:40:49;;;;;;;3.78;3.22;;;;;;;19.56;87.62;100676.53;5111258;28;20023;-88
2021/06/25 03:43:14;;;;;;;4.18;2.83;;;;;;;19.66;88.04;100681.78;5109152;28;20051;-88
2021/06/25 03:45:40;;;;;;;6.45;3.20;;;;;;;19.50;88.43;100671.00;5111660;28;20033;-88
2021/06/25 03:48:06;;;;;;;5.45;3.20;;;;;;;19.64;88.48;100672.28;5111032;28;20034;-88
2021/06/25 03:50:32;;;;;;;3.55;2.72;;;;;;;19.65;87.75;100673.94;5112309;28;20028;-88
2021/06/25 03:52:57;;;;;;;3.72;3.28;;;;;;;19.70;87.61;100680.47;5111317;28;20031;-89
2021/06/25 03:55:22;;;;;;;5.53;3.35;;;;;;;19.72;87.38;100670.50;5110443;28;20465;-89
2021/06/25 03:57:48;;;;;;;4.22;3.08;;;;;;;19.79;87.40;100670.75;5109456;28;20069;-88
2021/06/25 04:00:16;;;;;;;4.90;3.67;;;;;;;19.73;87.13;100666.88;5111422;28;20546;-88
2021/06/25 04:02:42;;;;;;;3.97;3.30;;;;;;;19.72;87.13;100675.84;5112216;28;20072;-88
2021/06/25 04:05:09;;;;;;;3.75;2.90;;;;;;;19.77;87.73;100668.22;5107892;28;20103;-88
2021/06/25 04:07:35;;;;;;;3.70;3.05;;;;;;;19.81;87.60;100679.41;5112048;28;20484;-88
2021/06/25 04:10:02;;;;;;;5.35;2.90;;;;;;;19.85;86.97;100669.28;5107458;28;20507;-88
2021/06/25 04:12:27;;;;;;;4.20;3.40;;;;;;;19.89;86.65;100670.63;5109928;28;20020;-88
2021/06/25 04:14:53;;;;;;;3.25;2.92;;;;;;;19.86;87.11;100668.25;5110465;28;20610;-88
2021/06/25 04:17:19;;;;;;;3.70;3.40;;;;;;;19.85;86.96;100674.59;5106674;28;20118;-88
2021/06/25 04:19:44;;;;;;;4.47;3.63;;;;;;;19.77;87.59;100668.22;5111570;28;20140;-88
2021/06/25 04:22:10;;;;;;;4.82;3.08;;;;;;;19.86;87.08;100668.25;5110967;28;20020;-88
2021/06/25 04:24:35;;;;;;;4.00;3.60;;;;;;;19.84;86.36;100663.09;5110071;28;20073;-88
2021/06/25 04:27:00;;;;;;;5.38;3.17;;;;;;;19.67;88.50;100655.97;5114404;28;20072;-88
2021/06/25 04:29:26;;;;;;;4.18;3.72;;;;;;;19.82;87.52;100659.75;5114348;28;20403;-88
2021/06/25 04:31:53;;;;;;;5.57;3.40;;;;;;;19.74;88.29;100663.19;5115026;28;20027;-89
2021/06/25 04:34:20;;;;;;;4.32;3.92;;;;;;;19.85;88.47;100669.28;5115967;28;20028;-89
2021/06/25 04:36:45;;;;;;;4.68;3.80;;;;;;;19.90;87.54;100667.78;5114214;28;20117;-88
2021/06/25 04:39:11;;;;;;;3.70;3.40;;;;;;;19.96;87.13;100661.84;5113764;28;20084;-89
2021/06/25 04:41:36;;;;;;;3.92;3.63;;;;;;;20.06;86.02;100660.88;5115235;28;20031;-89
2021/06/25 04:44:03;;;;;;;4.05;3.65;;;;;;;20.10;85.57;100671.06;5114109;28;20520;-89
2021/06/25 04:46:28;;;;;;;4.55;3.47;;;;;;;20.02;85.65;100671.00;5115149;28;20020;-89
2021/06/25 04:48:54;;;;;;;4.07;3.28;;;;;;;19.85;87.32;100669.28;5114368;28;20050;-88
2021/06/25 04:51:19;;;;;;;3.58;3.28;;;;;;;19.87;87.18;100668.13;5114215;28;20023;-88
2021/06/25 04:53:45;;;;;;;4.95;3.15;;;;;;;19.84;87.00;100672.91;5113146;28;20047;-88
2021/06/25 04:56:11;;;;;;;4.70;3.65;;;;;;;19.52;89.41;100674.34;5115662;28;20039;-88
2021/06/25 04:58:36;;;;;;;4.60;3.35;;;;;;;19.70;88.65;100669.81;5115842;28;20057;-88
2021/06/25 05:01:02;;;;;;;6.85;3.65;;;;;;;19.86;87.46;100668.25;5113825;28;20027;-88
2021/06/25 05:03:28;;;;;;;4.95;3.65;;;;;;;19.86;87.62;100670.94;5113040;28;20012;-89
2021/06/25 05:05:53;;;;;;;5.57;4.35;;;;;;;19.88;87.01;100675.09;5115700;28;20062;-88
2021/06/25 05:08:18;;;;;;;4.28;3.70;;;;;;;19.99;87.45;100676.66;5114131;28;20020;-88
2021/06/25 05:10:44;;;;;;;3.70;3.40;;;;;;;20.03;87.13;100678.03;5115864;28;20488;-88
2021/06/25 05:13:11;;;;;;;4.30;3.53;;;;;;;20.03;87.29;100675.34;5111401;28;20049;-89
2021/06/25 05:15:36;;;;;;;5.50;3.90;;;;;;;20.07;86.83;100674.03;5115414;28;20023;-89
2021/06/25 05:18:34;;;;;;;4.13;3.72;;;;;;;20.07;87.15;100678.53;5114218;28;20120;-89
2021/06/25 05:21:00;;;;;;;3.40;3.10;;;;;;;20.12;86.77;100682.41;5081004;28;20096;-89
2021/06/25 05:23:25;;;;;;;3.47;3.17;;;;;;;20.17;86.65;100682.75;5112199;28;20023;-89
2021/06/25 05:25:50;;;;;;;3.90;3.13;;;;;;;20.11;86.12;100680.72;5115109;28;20106;-89
2021/06/25 05:28:16;;;;;;;5.43;3.33;;;;;;;20.09;86.64;100689.88;5104038;28;20016;-89
2021/06/25 05:30:42;;;;;;;3.78;3.47;;;;;;;19.97;87.02;100679.50;5113415;28;20023;-89
2021/06/25 05:33:07;;;;;;;3.15;2.90;;;;;;;20.06;86.21;100682.19;5097015;28;20465;-89
2021/06/25 05:35:35;;;;;;;4.45;3.30;;;;;;;20.11;86.37;100687.88;5114359;28;20070;-89
2021/06/25 05:38:04;;;;;;;3.72;3.10;;;;;;;20.07;86.31;100679.38;5112300;28;20015;-87
2021/06/25 05:40:30;;;;;;;3.33;2.85;;;;;;;20.09;86.36;100685.38;5115028;28;20032;-88
2021/06/25 05:42:56;;;;;;;6.28;2.75;;;;;;;20.16;85.82;100683.75;5112349;28;20016;-88
2021/06/25 05:45:22;;;;;;;4.20;2.60;;;;;;;20.20;85.44;100674.44;5113892;28;20034;-89
2021/06/25 05:47:47;;;;;;;2.85;2.47;;;;;;;20.18;84.22;100681.75;5113985;27;20035;-88
2021/06/25 05:50:13;;;;;;;2.83;2.03;;;;;;;19.92;83.34;100687.09;5115170;28;20032;-89
2021/06/25 05:52:39;;;;;;;1.85;1.33;;;;;;;19.89;81.17;100690.09;5108455;28;20382;-89
2021/06/25 05:55:05;;;;;;;1.52;1.13;;;;;;;19.79;77.50;100692.88;5108481;28;20024;-88
2021/06/25 05:57:30;;;;;;;1.50;1.10;;;;;;;19.74;79.63;100697.84;5112206;28;20027;-88
2021/06/25 05:59:55;;;;;;;1.52;1.02;;;;;;;19.30;79.48;100692.50;5114683;28;20469;-88
2021/06/25 06:02:21;;;;;;;2.22;1.27;;;;;;;19.39;77.96;100683.59;5104539;28;20028;-89
2021/06/25 06:04:46;;;;;;;1.70;1.17;;;;;;;19.24;78.73;100690.47;5108021;28;20036;-88
2021/06/25 06:07:13;;;;;;;1.70;1.30;;;;;;;19.39;78.39;100685.41;5093596;28;20505;-88
2021/06/25 06:09:38;;;;;;;1.80;1.45;;;;;;;19.33;79.03;100686.03;5112313;28;20110;-89
2021/06/25 06:12:04;;;;;;;2.63;1.25;;;;;;;19.39;77.22;100688.91;5114197;28;20102;-88
2021/06/25 06:14:29;;;;;;;4.10;1.70;;;;;;;19.26;77.82;100695.63;5113250;28;20035;-88
2021/06/25 06:16:55;;;;;;;1.60;1.50;;;;;;;19.35;77.84;100698.22;5113784;28;20070;-88
2021/06/25 06:19:20;;;;;;;2.33;0.95;;;;;;;19.44;76.40;100680.47;5116644;28;20032;-92
2021/06/25 06:32:47;;;;;;;1.90;1.20;;;;;;;20.50;73.53;100666.88;5108943;28;20062;-90
2021/06/25 06:35:13;;;;;;;1.48;1.08;;;;;;;20.40;72.66;100668.84;5114138;28;20567;-91
2021/06/25 06:37:39;;;;;;;1.92;1.13;;;;;;;20.32;70.31;100669.66;5112050;28;20115;-92
2021/06/25 06:40:05;;;;;;;4.90;1.17;;;;;;;20.47;70.05;100677.84;5112065;28;20308;-92
2021/06/25 06:42:31;;;;;;;3.10;1.13;;;;;;;20.42;72.18;100682.84;5111201;28;20031;-93
2021/06/25 06:44:57;;;;;;;1.30;1.08;;;;;;;20.20;70.96;100679.78;5095285;28;20036;-93
2021/06/25 06:47:22;;;;;;;2.47;1.02;;;;;;;20.35;72.08;100676.47;5093416;28;20039;-93
2021/06/25 06:49:47;;;;;;;4.20;1.45;;;;;;;20.33;72.53;100673.13;5104387;28;20012;-94
2021/06/25 06:52:13;;;;;;;1.75;1.00;;;;;;;20.44;72.80;100685.34;5107902;28;20044;-93
2021/06/25 06:54:38;;;;;;;2.05;1.10;;;;;;;20.52;71.50;100680.03;5109427;28;20036;-92
2021/06/25 06:57:04;;;;;;;1.50;1.23;;;;;;;20.23;70.16;100675.94;5102727;28;20408;-93
2021/06/25 06:59:29;;;;;;;4.43;1.10;;;;;;;20.50;71.96;100690.88;5109159;28;20020;-93
2021/06/25 07:01:55;;;;;;;4.50;1.10;;;;;;;20.50;71.28;100688.22;5093176;28;20028;-93
2021/06/25 07:04:20;;;;;;;1.42;1.10;;;;;;;20.62;71.89;100691.44;5098878;28;20016;-93
2021/06/25 07:06:45;;;;;;;2.63;1.10;;;;;;;20.67;72.32;100698.94;5112673;28;20437;-94
2021/06/25 07:09:11;;;;;;;1.70;1.00;;;;;;;20.54;71.75;100689.56;5111596;28;20085;-93
2021/06/25 07:11:36;;;;;;;1.30;1.20;;;;;;;20.56;71.56;100692.88;5107892;28;20020;-93
2021/06/25 07:14:01;;;;;;;5.00;1.67;;;;;;;20.42;72.54;100698.84;5108518;28;20028;-93
2021/06/25 07:16:27;;;;;;;1.20;1.10;;;;;;;20.63;72.79;100685.09;5112038;28;20059;-93
2021/06/25 07:18:52;;;;;;;3.05;1.75;;;;;;;20.53;71.34;100690.53;5112549;28;20047;-93
2021/06/25 07:21:20;;;;;;;1.35;1.20;;;;;;;20.77;72.09;100696.97;5112801;28;20028;-92
2021/06/25 07:23:47;;;;;;;1.60;1.10;;;;;;;20.84;72.83;100689.97;5098798;28;20024;-94
2021/06/25 07:26:13;;;;;;;2.80;1.38;;;;;;;20.80;71.36;100693.97;5098203;28;20032;-93
2021/06/25 07:28:38;;;;;;;1.58;1.30;;;;;;;20.85;70.66;100694.31;5108281;28;20028;-94
2021/06/25 07:31:05;;;;;;;2.13;1.40;;;;;;;21.10;71.34;100689.00;5100927;27;20051;-93
2021/06/25 07:33:31;;;;;;;3.78;1.65;;;;;;;22.21;64.00;100687.50;5093841;28;20024;-93
2021/06/25 07:35:56;;;;;;;1.38;1.00;;;;;;;22.75;62.94;100690.28;5114284;28;20478;-92
2021/06/25 07:38:22;;;;;;;1.33;1.23;;;;;;;23.39;61.04;100691.84;5118223;28;20024;-91
2021/06/25 07:40:47;;;;;;;17.83;1.45;;;;;;;23.04;59.84;100691.44;5108845;28;20541;-91
2021/06/25 07:43:13;;;;;;;4.00;1.20;;;;;;;22.87;60.64;100704.09;5099991;28;20099;-92
2021/06/25 07:45:38;;;;;;;2.20;1.20;;;;;;;23.12;59.69;100702.09;5099882;28;20020;-92
2021/06/25 07:48:04;;;;;;;1.85;0.90;;;;;;;23.80;56.10;100697.66;5095360;28;20413;-93
2021/06/25 07:50:29;;;;;;;1.42;1.00;;;;;;;23.83;54.72;100699.13;5095251;28;20028;-92
2021/06/25 07:52:55;;;;;;;1.67;1.00;;;;;;;25.45;53.82;100699.75;5099087;28;20057;-91
2021/06/25 07:55:20;;;;;;;1.70;0.68;;;;;;;25.09;51.94;100694.47;5113537;28;20020;-90
2021/06/25 07:57:46;;;;;;;1.65;0.80;;;;;;;25.13;50.60;100703.78;5117120;28;20063;-91
2021/06/25 08:00:12;;;;;;;2.15;0.95;;;;;;;24.78;51.46;100695.59;5129138;28;20028;-90
2021/06/25 08:02:38;;;;;;;1.77;0.80;;;;;;;25.67;49.18;100700.56;5127903;28;20026;-91
2021/06/25 08:05:04;;;;;;;5.13;1.00;;;;;;;25.30;50.12;100705.22;5129837;28;20114;-91
2021/06/25 08:07:30;;;;;;;2.20;1.00;;;;;;;26.58;46.88;100696.94;5130651;28;20028;-91
2021/06/25 08:09:55;;;;;;;1.25;0.70;;;;;;;27.67;45.69;100695.78;5131906;28;20087;-91
2021/06/25 08:12:21;;;;;;;3.92;0.90;;;;;;;27.86;44.01;100701.34;5105202;28;20028;-91
2021/06/25 08:14:46;;;;;;;1.15;0.80;;;;;;;28.13;44.50;100693.22;5107553;28;20035;-92
2021/06/25 08:17:11;;;;;;;3.08;0.70;;;;;;;27.57;42.43;100689.13;5106587;28;20048;-91
2021/06/25 08:19:37;;;;;;;2.22;0.88;;;;;;;27.52;42.02;100687.09;5109679;28;20083;-91
2021/06/25 08:22:03;;;;;;;2.90;0.68;;;;;;;28.30;41.49;100694.41;5105359;28;20017;-91
2021/06/25 08:24:30;;;;;;;3.40;0.50;;;;;;;29.55;39.68;100677.56;5113067;28;20013;-90
2021/06/25 08:26:56;;;;;;;1.20;0.57;;;;;;;28.51;39.43;100681.66;5126758;28;20028;-89
2021/06/25 08:29:21;;;;;;;0.88;0.60;;;;;;;29.93;37.35;100675.75;5135461;28;20037;-88
2021/06/25 08:31:48;;;;;;;1.58;0.88;;;;;;;29.00;35.48;100663.88;5134839;28;20043;-90
2021/06/25 08:34:13;;;;;;;1.33;0.60;;;;;;;28.52;37.68;100677.91;5132484;28;20027;-92
2021/06/25 08:36:39;;;;;;;1.52;0.63;;;;;;;29.69;36.87;100682.84;5122425;28;20020;-91
2021/06/25 08:39:05;;;;;;;5.97;1.17;;;;;;;29.57;37.19;100677.34;5127171;28;20036;-90
2021/06/25 08:41:33;;;;;;;1.00;0.55;;;;;;;30.27;34.62;100674.28;5115613;28;20088;-91
2021/06/25 08:43:58;;;;;;;2.00;0.68;;;;;;;31.01;33.18;100677.66;5116019;28;20368;-92
2021/06/25 08:46:24;;;;;;;3.53;0.93;;;;;;;31.15;33.29;100677.44;5115286;28;20032;-90
2021/06/25 08:48:51;;;;;;;3.33;0.80;;;;;;;31.00;33.74;100672.44;5116615;28;20080;-91
2021/06/25 08:51:18;;;;;;;1.13;0.60;;;;;;;30.50;34.38;100672.75;5116271;28;20028;-90
2021/06/25 08:53:43;;;;;;;1.55;0.65;;;;;;;28.82;36.37;100678.97;5095361;28;20448;-91
2021/06/25 08:56:09;;;;;;;4.45;1.08;;;;;;;29.92;35.06;100672.22;5099133;28;20028;-91
2021/06/25 08:58:34;;;;;;;2.35;0.90;;;;;;;29.57;36.08;100675.47;5093271;28;20321;-90
2021/06/25 09:01:00;;;;;;;1.73;0.60;;;;;;;29.19;37.04;100665.63;5095503;28;20019;-91
2021/06/25 09:03:30;;;;;;;2.05;0.80;;;;;;;28.84;35.56;100657.13;5093765;28;20023;-90
2021/06/25 09:06:26;;;;;;;1.65;0.73;;;;;;;28.53;37.99;100666.88;5104782;28;20023;-90
2021/06/25 09:08:51;;;;;;;4.18;1.10;;;;;;;27.98;39.12;100672.72;5079751;28;20036;-90
2021/06/25 09:11:26;;;;;;;3.13;1.10;;;;;;;27.03;38.49;100682.91;5093828;28;20370;-91
2021/06/25 09:14:03;;;;;;;4.97;0.98;;;;;;;25.54;42.10;100678.94;5096148;28;20081;-91
2021/06/25 09:16:36;;;;;;;4.63;1.17;;;;;;;26.88;39.39;100680.41;5096763;28;20028;-92
2021/06/25 09:19:16;;;;;;;2.83;1.08;;;;;;;28.24;37.75;100663.69;5096084;28;20028;-91
2021/06/25 09:22:03;;;;;;;1.87;0.90;;;;;;;28.95;36.44;100666.38;5097844;28;20067;-91
2021/06/25 09:24:29;;;;;;;2.80;1.02;;;;;;;28.29;35.95;100663.84;5097210;28;20021;-91
2021/06/25 09:27:04;;;;;;;3.50;1.20;;;;;;;28.68;36.89;100659.31;5110413;28;20093;-91
2021/06/25 09:29:35;;;;;;;2.35;1.02;;;;;;;28.95;37.43;100658.28;5096307;28;20024;-90
2021/06/25 09:32:04;;;;;;;5.85;1.23;;;;;;;30.33;35.02;100649.00;5106578;28;20512;-91
2021/06/25 09:34:42;;;;;;;2.92;1.10;;;;;;;29.03;36.42;100660.75;5115133;28;20388;-91
2021/06/25 09:37:12;;;;;;;3.25;1.20;;;;;;;27.26;36.57;100660.97;5116146;28;20027;-91
2021/06/25 09:39:43;;;;;;;2.70;1.00;;;;;;;27.08;37.53;100648.91;5115491;28;20076;-90
2021/06/25 09:42:19;;;;;;;4.60;1.02;;;;;;;28.22;36.98;100656.81;5095556;28;20035;-90
2021/06/25 09:44:57;;;;;;;3.70;1.02;;;;;;;29.02;35.26;100659.06;5109388;28;20364;-91
2021/06/25 09:47:33;;;;;;;5.88;1.33;;;;;;;29.20;35.24;100651.03;5115520;28;20058;-92
2021/06/25 09:50:08;;;;;;;4.78;1.27;;;;;;;29.38;34.74;100649.44;5100731;28;20055;-91
2021/06/25 09:52:55;;;;;;;3.97;1.38;;;;;;;30.56;32.21;100647.47;5095832;28;20024;-92
2021/06/25 09:55:25;;;;;;;7.22;1.55;;;;;;;32.15;30.86;100641.16;5095391;28;20032;-91
2021/06/25 10:04:01;;;;;;;5.47;1.02;;;;;;;29.89;32.81;100653.72;5113804;28;20508;-92
2021/06/25 10:06:31;;;;;;;3.63;1.05;;;;;;;29.90;31.92;100649.97;5115719;28;20496;-91
2021/06/25 10:08:57;;;;;;;5.88;1.00;;;;;;;28.43;33.63;100640.28;5115382;28;20031;-89
2021/06/25 10:11:25;;;;;;;3.15;1.00;;;;;;;28.63;33.97;100647.50;5115114;28;20023;-88
2021/06/25 10:13:53;;;;;;;172.27;19.63;;;;;;;29.75;31.30;100654.91;5115197;28;20381;-90
2021/06/25 10:16:20;;;;;;;2.40;0.75;;;;;;;28.90;33.67;100650.03;5113223;27;20034;-90
2021/06/25 10:18:49;;;;;;;3.63;1.50;;;;;;;29.12;34.24;100651.31;5114439;28;20039;-88
2021/06/25 10:21:17;;;;;;;5.40;1.10;;;;;;;28.64;35.34;100657.25;5113991;28;20016;-89
2021/06/25 10:23:50;;;;;;;5.97;1.23;;;;;;;28.34;34.55;100654.25;5103175;28;20460;-90
2021/06/25 10:26:18;;;;;;;8.55;1.42;;;;;;;27.15;36.15;100664.25;5099192;28;20024;-91
2021/06/25 10:28:46;;;;;;;32.97;4.15;;;;;;;26.96;37.51;100671.31;5093877;28;20024;-92
2021/06/25 10:31:14;;;;;;;7.47;1.50;;;;;;;26.37;37.10;100660.16;5094170;28;20028;-91
2021/06/25 10:33:41;;;;;;;3.50;1.23;;;;;;;26.22;38.18;100651.41;5114605;28;20035;-95
2021/06/25 10:36:09;;;;;;;1.77;1.13;;;;;;;27.18;36.94;100653.91;5113195;28;20114;-96
2021/06/25 10:38:35;;;;;;;9.43;1.60;;;;;;;27.00;36.17;100656.38;5112749;28;20619;-94
2021/06/25 10:41:03;;;;;;;4.60;1.42;;;;;;;26.77;37.29;100664.84;5104436;28;20111;-94
2021/06/25 10:43:44;;;;;;;4.38;1.40;;;;;;;26.41;37.76;100652.50;5097316;28;20020;-95
2021/06/25 10:46:34;;;;;;;4.20;1.00;;;;;;;26.73;38.88;100667.13;5100391;28;20066;-93
2021/06/25 10:49:18;;;;;;;3.50;1.38;;;;;;;26.18;38.43;100660.91;5111844;28;20039;-94
2021/06/25 10:51:45;;;;;;;3.95;1.30;;;;;;;25.93;39.55;100666.81;5101743;28;20099;-95
2021/06/25 10:54:19;;;;;;;19.27;2.85;;;;;;;26.03;38.55;100661.91;5107974;28;20119;-95
2021/06/25 10:56:50;;;;;;;5.18;2.10;;;;;;;25.61;39.91;100652.94;5097462;28;20099;-94
2021/06/25 10:59:26;;;;;;;;;;;;;;;25.79;39.07;100654.25;5100509;28;20173;-96
2021/06/25 11:01:55;;;;;;;4.38;1.67;;;;;;;25.81;40.00;100665.66;5108082;28;20266;-96
2021/06/25 11:04:46;;;;;;;6.28;1.70;;;;;;;25.56;39.69;100655.38;5099881;28;20020;-96
2021/06/25 11:07:44;;;;;;;3.40;1.38;;;;;;;25.63;40.44;100650.03;5101617;28;20035;-96
2021/06/25 11:10:09;;;;;;;4.97;1.70;;;;;;;26.95;37.28;100648.09;5117639;28;20028;-96
2021/06/25 11:12:37;;;;;;;6.25;1.58;;;;;;;26.58;37.13;100655.66;5115380;28;20031;-95
2021/06/25 11:15:08;;;;;;;4.85;1.65;;;;;;;27.46;36.38;100644.78;5095459;28;20020;-96
2021/06/25 11:17:53;;;;;;;6.00;1.73;;;;;;;26.55;36.28;100645.31;5096121;28;20630;-96
2021/06/25 11:20:36;;;;;;;5.85;1.55;;;;;;;27.32;36.37;100645.84;5094304;28;20378;-96
2021/06/25 11:23:21;;;;;;;4.18;1.08;;;;;;;27.25;36.36;100645.81;5106778;28;20486;-96
2021/06/25 11:25:55;;;;;;;8.43;2.35;;;;;;;26.86;36.18;100645.59;5114364;28;20034;-96
2021/06/25 11:28:40;;;;;;;12.07;2.13;;;;;;;26.87;35.67;100652.63;5113081;28;20466;-96
2021/06/25 11:31:19;;;;;;;3.75;1.90;;;;;;;26.59;36.08;100649.28;5099143;28;20031;-96
2021/06/25 11:33:48;;;;;;;4.90;1.60;;;;;;;26.52;36.38;100655.44;5106422;28;20268;-96
2021/06/25 11:36:13;;;;;;;2.28;1.20;;;;;;;26.28;35.86;100655.97;5095962;28;20032;-96
2021/06/25 11:38:56;;;;;;;5.88;1.50;;;;;;;26.21;36.63;100655.13;5114843;28;20027;-96
2021/06/25 11:41:29;;;;;;;3.55;1.17;;;;;;;26.21;37.67;100653.28;5118777;28;20023;-96
2021/06/25 11:43:57;;;;;;;4.57;1.33;;;;;;;25.98;37.34;100636.63;5115831;28;20122;-96